sensor_id;sensor_type;location;lat;lon;timestamp;P1;durP1;ratioP1;P2;durP2;ratioP2
11548;SDS011;61444;59.472;18.306;2023-04-01T01:04:59;2.93;;;0.97;;
11548;SDS011;61444;59.472;18.306;2023-04-01T01:07:12;3.73;;;1.10;;
11548;SDS011;61444;59.472;18.306;2023-04-01T01:09:25;3.37;;;1.20;;
11548;SDS011;61444;59.472;18.306;2023-04-01T01:11:39;2.27;;;0.80;;
11548;SDS011;61444;59.472;18.306;2023-04-01T01:13:51;1.90;;;0.90;;
11548;SDS011;61444;59.472;18.306;2023-04-01T01:16:03;5.40;;;1.10;;
11548;SDS011;61444;59.472;18.306;2023-04-01T01:18:16;1.73;;;0.80;;
11548;SDS011;61444;59.472;18.306;2023-04-01T01:20:49;2.03;;;1.10;;
11548;SDS011;61444;59.472;18.306;2023-04-01T01:25:32;1.80;;;1.10;;
11548;SDS011;61444;59.472;18.306;2023-04-01T01:27:47;3.13;;;1.00;;
11548;SDS011;61444;59.472;18.306;2023-04-01T01:30:14;2.70;;;1.10;;
11548;SDS011;61444;59.472;18.306;2023-04-01T01:34:54;2.40;;;0.97;;
11548;SDS011;61444;59.472;18.306;2023-04-01T01:37:08;2.53;;;1.07;;
11548;SDS011;61444;59.472;18.306;2023-04-01T01:39:17;2.60;;;1.00;;
11548;SDS011;61444;59.472;18.306;2023-04-01T01:41:33;1.43;;;0.87;;
11548;SDS011;61444;59.472;18.306;2023-04-01T01:43:46;1.07;;;0.73;;
11548;SDS011;61444;59.472;18.306;2023-04-01T01:45:57;1.63;;;1.00;;
11548;SDS011;61444;59.472;18.306;2023-04-01T01:48:07;2.87;;;1.00;;
11548;SDS011;61444;59.472;18.306;2023-04-01T01:50:17;2.57;;;1.20;;
11548;SDS011;61444;59.472;18.306;2023-04-01T01:52:28;2.07;;;1.10;;
11548;SDS011;61444;59.472;18.306;2023-04-01T01:54:46;2.97;;;1.03;;
11548;SDS011;61444;59.472;18.306;2023-04-01T01:56:55;1.27;;;0.90;;
11548;SDS011;61444;59.472;18.306;2023-04-01T01:59:08;2.00;;;0.97;;
11548;SDS011;61444;59.472;18.306;2023-04-01T02:01:20;2.97;;;1.03;;
11548;SDS011;61444;59.472;18.306;2023-04-01T02:03:31;2.90;;;1.00;;
11548;SDS011;61444;59.472;18.306;2023-04-01T02:05:42;1.87;;;0.87;;
11548;SDS011;61444;59.472;18.306;2023-04-01T02:07:55;1.70;;;1.10;;
11548;SDS011;61444;59.472;18.306;2023-04-01T02:10:07;1.73;;;0.97;;
11548;SDS011;61444;59.472;18.306;2023-04-01T02:12:15;1.53;;;0.90;;
11548;SDS011;61444;59.472;18.306;2023-04-01T02:14:26;2.77;;;1.20;;
11548;SDS011;61444;59.472;18.306;2023-04-01T02:16:37;2.20;;;1.17;;
11548;SDS011;61444;59.472;18.306;2023-04-01T02:18:47;1.37;;;0.90;;
11548;SDS011;61444;59.472;18.306;2023-04-01T02:20:57;3.33;;;1.17;;
11548;SDS011;61444;59.472;18.306;2023-04-01T02:23:08;2.57;;;0.90;;
11548;SDS011;61444;59.472;18.306;2023-04-01T02:25:18;1.27;;;1.10;;
11548;SDS011;61444;59.472;18.306;2023-04-01T02:27:28;1.00;;;0.90;;
11548;SDS011;61444;59.472;18.306;2023-04-01T02:29:39;6.50;;;1.57;;
11548;SDS011;61444;59.472;18.306;2023-04-01T02:31:48;2.97;;;1.30;;
11548;SDS011;61444;59.472;18.306;2023-04-01T02:33:59;1.13;;;0.80;;
11548;SDS011;61444;59.472;18.306;2023-04-01T02:36:10;1.50;;;1.10;;
11548;SDS011;61444;59.472;18.306;2023-04-01T02:38:21;1.13;;;0.80;;
11548;SDS011;61444;59.472;18.306;2023-04-01T02:40:39;0.80;;;0.60;;
11548;SDS011;61444;59.472;18.306;2023-04-01T02:42:49;1.47;;;1.00;;
11548;SDS011;61444;59.472;18.306;2023-04-01T02:44:58;1.90;;;0.90;;
11548;SDS011;61444;59.472;18.306;2023-04-01T02:47:07;1.20;;;0.80;;
11548;SDS011;61444;59.472;18.306;2023-04-01T02:49:16;1.30;;;0.93;;
11548;SDS011;61444;59.472;18.306;2023-04-01T02:51:25;2.27;;;1.00;;
11548;SDS011;61444;59.472;18.306;2023-04-01T02:53:38;1.80;;;0.90;;
11548;SDS011;61444;59.472;18.306;2023-04-01T02:55:47;2.37;;;0.97;;
11548;SDS011;61444;59.472;18.306;2023-04-01T02:57:58;1.70;;;1.03;;
11548;SDS011;61444;59.472;18.306;2023-04-01T03:00:07;1.30;;;0.90;;
11548;SDS011;61444;59.472;18.306;2023-04-01T03:02:17;1.30;;;0.80;;
11548;SDS011;61444;59.472;18.306;2023-04-01T03:04:27;2.47;;;1.03;;
11548;SDS011;61444;59.472;18.306;2023-04-01T03:06:36;4.33;;;1.00;;
11548;SDS011;61444;59.472;18.306;2023-04-01T03:08:46;2.13;;;1.20;;
11548;SDS011;61444;59.472;18.306;2023-04-01T03:10:55;1.00;;;0.73;;
11548;SDS011;61444;59.472;18.306;2023-04-01T03:13:05;1.23;;;1.00;;
11548;SDS011;61444;59.472;18.306;2023-04-01T03:15:15;2.20;;;0.97;;
11548;SDS011;61444;59.472;18.306;2023-04-01T03:17:23;1.23;;;0.90;;
11548;SDS011;61444;59.472;18.306;2023-04-01T03:19:32;2.67;;;0.97;;
11548;SDS011;61444;59.472;18.306;2023-04-01T03:21:41;1.57;;;0.80;;
11548;SDS011;61444;59.472;18.306;2023-04-01T03:23:51;2.30;;;1.23;;
11548;SDS011;61444;59.472;18.306;2023-04-01T03:26:00;1.53;;;1.03;;
11548;SDS011;61444;59.472;18.306;2023-04-01T03:28:09;2.10;;;1.03;;
11548;SDS011;61444;59.472;18.306;2023-04-01T03:30:18;1.60;;;1.00;;
11548;SDS011;61444;59.472;18.306;2023-04-01T03:32:31;2.53;;;0.77;;
11548;SDS011;61444;59.472;18.306;2023-04-01T03:34:40;1.07;;;0.60;;
11548;SDS011;61444;59.472;18.306;2023-04-01T03:36:49;2.27;;;1.03;;
11548;SDS011;61444;59.472;18.306;2023-04-01T03:38:59;3.47;;;0.90;;
11548;SDS011;61444;59.472;18.306;2023-04-01T03:41:11;2.40;;;1.10;;
11548;SDS011;61444;59.472;18.306;2023-04-01T03:43:20;1.17;;;0.70;;
11548;SDS011;61444;59.472;18.306;2023-04-01T03:45:29;3.00;;;1.13;;
11548;SDS011;61444;59.472;18.306;2023-04-01T03:47:39;1.80;;;0.97;;
11548;SDS011;61444;59.472;18.306;2023-04-01T03:49:48;1.80;;;1.17;;
11548;SDS011;61444;59.472;18.306;2023-04-01T03:51:57;1.47;;;0.83;;
11548;SDS011;61444;59.472;18.306;2023-04-01T03:54:10;3.03;;;1.10;;
11548;SDS011;61444;59.472;18.306;2023-04-01T03:56:19;3.17;;;0.87;;
11548;SDS011;61444;59.472;18.306;2023-04-01T03:58:27;2.37;;;1.17;;
11548;SDS011;61444;59.472;18.306;2023-04-01T04:00:36;1.83;;;1.03;;
11548;SDS011;61444;59.472;18.306;2023-04-01T04:02:46;3.20;;;1.40;;
11548;SDS011;61444;59.472;18.306;2023-04-01T04:04:56;1.70;;;1.00;;
11548;SDS011;61444;59.472;18.306;2023-04-01T04:07:05;2.60;;;1.30;;
11548;SDS011;61444;59.472;18.306;2023-04-01T04:09:17;1.87;;;1.07;;
11548;SDS011;61444;59.472;18.306;2023-04-01T04:11:27;1.33;;;0.90;;
11548;SDS011;61444;59.472;18.306;2023-04-01T04:13:37;2.10;;;1.10;;
11548;SDS011;61444;59.472;18.306;2023-04-01T04:15:48;2.80;;;1.60;;
11548;SDS011;61444;59.472;18.306;2023-04-01T04:17:57;1.97;;;1.03;;
11548;SDS011;61444;59.472;18.306;2023-04-01T04:20:06;2.40;;;1.30;;
11548;SDS011;61444;59.472;18.306;2023-04-01T04:22:15;2.13;;;1.20;;
11548;SDS011;61444;59.472;18.306;2023-04-01T04:24:26;1.90;;;1.00;;
11548;SDS011;61444;59.472;18.306;2023-04-01T04:26:35;1.90;;;0.90;;
11548;SDS011;61444;59.472;18.306;2023-04-01T04:28:44;6.23;;;1.30;;
11548;SDS011;61444;59.472;18.306;2023-04-01T04:30:56;3.57;;;1.03;;
11548;SDS011;61444;59.472;18.306;2023-04-01T04:33:04;2.00;;;1.10;;
11548;SDS011;61444;59.472;18.306;2023-04-01T04:35:14;2.53;;;1.20;;
11548;SDS011;61444;59.472;18.306;2023-04-01T04:37:23;1.93;;;0.90;;
11548;SDS011;61444;59.472;18.306;2023-04-01T04:39:34;2.57;;;1.07;;
11548;SDS011;61444;59.472;18.306;2023-04-01T04:41:45;2.10;;;1.10;;
11548;SDS011;61444;59.472;18.306;2023-04-01T04:43:54;1.87;;;1.03;;
11548;SDS011;61444;59.472;18.306;2023-04-01T04:46:05;1.80;;;1.03;;
11548;SDS011;61444;59.472;18.306;2023-04-01T04:48:15;2.73;;;1.23;;
11548;SDS011;61444;59.472;18.306;2023-04-01T04:50:25;4.03;;;1.33;;
11548;SDS011;61444;59.472;18.306;2023-04-01T04:52:34;2.43;;;1.10;;
11548;SDS011;61444;59.472;18.306;2023-04-01T04:54:45;1.67;;;1.07;;
11548;SDS011;61444;59.472;18.306;2023-04-01T04:56:54;1.83;;;1.10;;
11548;SDS011;61444;59.472;18.306;2023-04-01T04:59:03;3.37;;;1.20;;
11548;SDS011;61444;59.472;18.306;2023-04-01T05:01:13;3.57;;;1.00;;
11548;SDS011;61444;59.472;18.306;2023-04-01T05:03:23;1.50;;;0.80;;
11548;SDS011;61444;59.472;18.306;2023-04-01T05:05:32;2.63;;;1.20;;
11548;SDS011;61444;59.472;18.306;2023-04-01T05:07:41;3.37;;;1.50;;
11548;SDS011;61444;59.472;18.306;2023-04-01T05:09:54;2.87;;;1.40;;
11548;SDS011;61444;59.472;18.306;2023-04-01T05:12:03;2.63;;;0.90;;
11548;SDS011;61444;59.472;18.306;2023-04-01T05:14:13;2.20;;;0.90;;
11548;SDS011;61444;59.472;18.306;2023-04-01T05:16:22;7.73;;;1.50;;
11548;SDS011;61444;59.472;18.306;2023-04-01T05:18:31;2.47;;;1.30;;
11548;SDS011;61444;59.472;18.306;2023-04-01T05:20:45;2.60;;;1.23;;
11548;SDS011;61444;59.472;18.306;2023-04-01T05:22:55;4.10;;;1.30;;
11548;SDS011;61444;59.472;18.306;2023-04-01T05:25:06;2.27;;;1.10;;
11548;SDS011;61444;59.472;18.306;2023-04-01T05:27:15;2.33;;;1.20;;
11548;SDS011;61444;59.472;18.306;2023-04-01T05:29:24;2.43;;;1.10;;
11548;SDS011;61444;59.472;18.306;2023-04-01T05:31:33;4.87;;;1.40;;
11548;SDS011;61444;59.472;18.306;2023-04-01T05:33:46;4.43;;;1.40;;
11548;SDS011;61444;59.472;18.306;2023-04-01T05:35:55;2.30;;;1.10;;
11548;SDS011;61444;59.472;18.306;2023-04-01T05:38:05;2.93;;;1.23;;
11548;SDS011;61444;59.472;18.306;2023-04-01T05:40:15;3.13;;;1.33;;
11548;SDS011;61444;59.472;18.306;2023-04-01T05:42:26;3.40;;;1.07;;
11548;SDS011;61444;59.472;18.306;2023-04-01T05:44:37;2.00;;;1.20;;
11548;SDS011;61444;59.472;18.306;2023-04-01T05:46:45;5.07;;;1.13;;
11548;SDS011;61444;59.472;18.306;2023-04-01T05:48:54;2.70;;;1.30;;
11548;SDS011;61444;59.472;18.306;2023-04-01T05:51:03;4.37;;;1.10;;
11548;SDS011;61444;59.472;18.306;2023-04-01T05:53:12;2.17;;;1.13;;
11548;SDS011;61444;59.472;18.306;2023-04-01T05:55:23;3.10;;;1.30;;
11548;SDS011;61444;59.472;18.306;2023-04-01T05:57:32;2.07;;;1.23;;
11548;SDS011;61444;59.472;18.306;2023-04-01T05:59:41;3.23;;;1.20;;
11548;SDS011;61444;59.472;18.306;2023-04-01T06:01:52;2.80;;;1.10;;
11548;SDS011;61444;59.472;18.306;2023-04-01T06:04:06;2.77;;;1.60;;
11548;SDS011;61444;59.472;18.306;2023-04-01T06:06:15;4.40;;;1.10;;
11548;SDS011;61444;59.472;18.306;2023-04-01T06:08:24;1.87;;;1.30;;
11548;SDS011;61444;59.472;18.306;2023-04-01T06:10:37;2.23;;;1.20;;
11548;SDS011;61444;59.472;18.306;2023-04-01T06:12:51;2.77;;;1.33;;
11548;SDS011;61444;59.472;18.306;2023-04-01T06:15:09;2.43;;;1.30;;
11548;SDS011;61444;59.472;18.306;2023-04-01T06:17:24;3.27;;;1.20;;
11548;SDS011;61444;59.472;18.306;2023-04-01T06:19:36;2.23;;;1.37;;
11548;SDS011;61444;59.472;18.306;2023-04-01T06:22:06;3.37;;;1.33;;
11548;SDS011;61444;59.472;18.306;2023-04-01T06:24:24;7.70;;;1.60;;
11548;SDS011;61444;59.472;18.306;2023-04-01T06:26:39;1.67;;;1.23;;
11548;SDS011;61444;59.472;18.306;2023-04-01T06:29:02;5.93;;;1.17;;
11548;SDS011;61444;59.472;18.306;2023-04-01T06:31:17;2.27;;;0.90;;
11548;SDS011;61444;59.472;18.306;2023-04-01T06:33:35;3.40;;;1.40;;
11548;SDS011;61444;59.472;18.306;2023-04-01T06:38:21;2.97;;;1.40;;
11548;SDS011;61444;59.472;18.306;2023-04-01T06:43:10;2.83;;;0.77;;
11548;SDS011;61444;59.472;18.306;2023-04-01T06:45:28;1.10;;;0.77;;
11548;SDS011;61444;59.472;18.306;2023-04-01T06:47:43;1.17;;;0.77;;
11548;SDS011;61444;59.472;18.306;2023-04-01T06:49:57;3.27;;;1.00;;
11548;SDS011;61444;59.472;18.306;2023-04-01T06:52:10;1.30;;;0.80;;
11548;SDS011;61444;59.472;18.306;2023-04-01T06:54:24;2.50;;;0.93;;
11548;SDS011;61444;59.472;18.306;2023-04-01T06:56:34;2.43;;;0.97;;
11548;SDS011;61444;59.472;18.306;2023-04-01T06:58:48;2.47;;;1.00;;
11548;SDS011;61444;59.472;18.306;2023-04-01T07:00:59;5.60;;;0.60;;
11548;SDS011;61444;59.472;18.306;2023-04-01T07:03:13;1.43;;;0.67;;
11548;SDS011;61444;59.472;18.306;2023-04-01T07:05:25;1.00;;;0.57;;
11548;SDS011;61444;59.472;18.306;2023-04-01T07:07:38;1.37;;;0.70;;
11548;SDS011;61444;59.472;18.306;2023-04-01T07:09:50;3.03;;;0.73;;
11548;SDS011;61444;59.472;18.306;2023-04-01T07:12:01;2.17;;;0.80;;
11548;SDS011;61444;59.472;18.306;2023-04-01T07:14:13;1.80;;;0.50;;
11548;SDS011;61444;59.472;18.306;2023-04-01T07:16:25;1.90;;;1.03;;
11548;SDS011;61444;59.472;18.306;2023-04-01T07:18:37;0.93;;;0.60;;
11548;SDS011;61444;59.472;18.306;2023-04-01T07:20:49;8.23;;;1.03;;
11548;SDS011;61444;59.472;18.306;2023-04-01T07:23:00;0.97;;;0.53;;
11548;SDS011;61444;59.472;18.306;2023-04-01T07:25:12;2.63;;;0.70;;
11548;SDS011;61444;59.472;18.306;2023-04-01T07:27:22;1.73;;;0.90;;
11548;SDS011;61444;59.472;18.306;2023-04-01T07:29:33;2.43;;;0.63;;
11548;SDS011;61444;59.472;18.306;2023-04-01T07:31:56;1.47;;;0.57;;
11548;SDS011;61444;59.472;18.306;2023-04-01T07:34:08;1.47;;;0.70;;
11548;SDS011;61444;59.472;18.306;2023-04-01T07:36:23;2.83;;;0.93;;
11548;SDS011;61444;59.472;18.306;2023-04-01T07:38:35;2.67;;;0.90;;
11548;SDS011;61444;59.472;18.306;2023-04-01T07:40:50;1.57;;;0.67;;
11548;SDS011;61444;59.472;18.306;2023-04-01T07:43:07;1.23;;;0.73;;
11548;SDS011;61444;59.472;18.306;2023-04-01T07:45:23;0.77;;;0.60;;
11548;SDS011;61444;59.472;18.306;2023-04-01T07:47:40;3.43;;;0.77;;
11548;SDS011;61444;59.472;18.306;2023-04-01T07:49:53;1.50;;;0.60;;
11548;SDS011;61444;59.472;18.306;2023-04-01T07:52:06;1.50;;;0.80;;
11548;SDS011;61444;59.472;18.306;2023-04-01T07:54:17;0.97;;;0.40;;
11548;SDS011;61444;59.472;18.306;2023-04-01T07:56:31;2.57;;;0.70;;
11548;SDS011;61444;59.472;18.306;2023-04-01T07:58:45;2.00;;;0.60;;
11548;SDS011;61444;59.472;18.306;2023-04-01T08:01:01;1.37;;;0.57;;
11548;SDS011;61444;59.472;18.306;2023-04-01T08:03:21;2.20;;;0.70;;
11548;SDS011;61444;59.472;18.306;2023-04-01T08:05:36;2.10;;;0.80;;
11548;SDS011;61444;59.472;18.306;2023-04-01T08:07:51;2.13;;;0.63;;
11548;SDS011;61444;59.472;18.306;2023-04-01T08:10:06;1.00;;;0.40;;
11548;SDS011;61444;59.472;18.306;2023-04-01T08:12:21;1.47;;;0.60;;
11548;SDS011;61444;59.472;18.306;2023-04-01T08:14:36;0.70;;;0.33;;
11548;SDS011;61444;59.472;18.306;2023-04-01T08:16:52;0.77;;;0.53;;
11548;SDS011;61444;59.472;18.306;2023-04-01T08:19:04;1.50;;;0.80;;
11548;SDS011;61444;59.472;18.306;2023-04-01T08:21:20;1.43;;;0.53;;
11548;SDS011;61444;59.472;18.306;2023-04-01T08:23:30;1.77;;;0.57;;
11548;SDS011;61444;59.472;18.306;2023-04-01T08:25:42;2.57;;;0.63;;
11548;SDS011;61444;59.472;18.306;2023-04-01T08:27:57;1.80;;;0.63;;
11548;SDS011;61444;59.472;18.306;2023-04-01T08:30:15;0.60;;;0.50;;
11548;SDS011;61444;59.472;18.306;2023-04-01T08:32:28;1.10;;;0.50;;
11548;SDS011;61444;59.472;18.306;2023-04-01T08:34:37;1.07;;;0.60;;
11548;SDS011;61444;59.472;18.306;2023-04-01T08:36:47;1.73;;;0.70;;
11548;SDS011;61444;59.472;18.306;2023-04-01T08:39:02;1.73;;;0.50;;
11548;SDS011;61444;59.472;18.306;2023-04-01T08:41:32;2.63;;;0.60;;
11548;SDS011;61444;59.472;18.306;2023-04-01T08:43:54;6.17;;;0.87;;
11548;SDS011;61444;59.472;18.306;2023-04-01T08:46:15;1.80;;;0.53;;
11548;SDS011;61444;59.472;18.306;2023-04-01T08:48:33;1.60;;;0.60;;
11548;SDS011;61444;59.472;18.306;2023-04-01T08:53:19;0.93;;;0.50;;
11548;SDS011;61444;59.472;18.306;2023-04-01T08:55:36;1.17;;;0.57;;
11548;SDS011;61444;59.472;18.306;2023-04-01T08:57:50;1.27;;;0.93;;
11548;SDS011;61444;59.472;18.306;2023-04-01T09:00:07;1.00;;;0.67;;
11548;SDS011;61444;59.472;18.306;2023-04-01T09:02:30;1.50;;;0.60;;
11548;SDS011;61444;59.472;18.306;2023-04-01T09:04:59;1.33;;;0.60;;
11548;SDS011;61444;59.472;18.306;2023-04-01T09:07:16;0.57;;;0.50;;
11548;SDS011;61444;59.472;18.306;2023-04-01T09:09:40;1.53;;;0.67;;
11548;SDS011;61444;59.472;18.306;2023-04-01T09:11:59;1.67;;;0.67;;
11548;SDS011;61444;59.472;18.306;2023-04-01T09:16:58;0.63;;;0.40;;
11548;SDS011;61444;59.472;18.306;2023-04-01T09:21:44;1.00;;;0.50;;
11548;SDS011;61444;59.472;18.306;2023-04-01T09:24:02;1.53;;;0.53;;
11548;SDS011;61444;59.472;18.306;2023-04-01T09:28:42;1.20;;;0.50;;
11548;SDS011;61444;59.472;18.306;2023-04-01T09:30:58;1.37;;;0.60;;
11548;SDS011;61444;59.472;18.306;2023-04-01T09:33:21;2.00;;;0.87;;
11548;SDS011;61444;59.472;18.306;2023-04-01T09:35:38;0.60;;;0.40;;
11548;SDS011;61444;59.472;18.306;2023-04-01T09:37:54;0.97;;;0.60;;
11548;SDS011;61444;59.472;18.306;2023-04-01T09:42:42;1.80;;;0.70;;
11548;SDS011;61444;59.472;18.306;2023-04-01T09:44:52;0.97;;;0.60;;
11548;SDS011;61444;59.472;18.306;2023-04-01T09:47:09;2.10;;;0.70;;
11548;SDS011;61444;59.472;18.306;2023-04-01T09:49:40;1.20;;;0.63;;
11548;SDS011;61444;59.472;18.306;2023-04-01T09:51:54;0.97;;;0.60;;
11548;SDS011;61444;59.472;18.306;2023-04-01T09:54:17;0.60;;;0.50;;
11548;SDS011;61444;59.472;18.306;2023-04-01T09:59:09;3.20;;;0.70;;
11548;SDS011;61444;59.472;18.306;2023-04-01T10:01:31;0.60;;;0.53;;
11548;SDS011;61444;59.472;18.306;2023-04-01T10:14:01;2.80;;;1.20;;
11548;SDS011;61444;59.472;18.306;2023-04-01T10:16:23;4.00;;;0.80;;
11548;SDS011;61444;59.472;18.306;2023-04-01T10:26:01;1.37;;;0.63;;
11548;SDS011;61444;59.472;18.306;2023-04-01T10:28:34;1.43;;;0.70;;
11548;SDS011;61444;59.472;18.306;2023-04-01T10:31:06;1.40;;;1.00;;
11548;SDS011;61444;59.472;18.306;2023-04-01T10:33:39;3.13;;;1.60;;
11548;SDS011;61444;59.472;18.306;2023-04-01T10:38:28;1.43;;;0.80;;
11548;SDS011;61444;59.472;18.306;2023-04-01T10:40:54;2.40;;;0.80;;
11548;SDS011;61444;59.472;18.306;2023-04-01T10:43:14;1.03;;;0.43;;
11548;SDS011;61444;59.472;18.306;2023-04-01T10:53:06;0.67;;;0.33;;
11548;SDS011;61444;59.472;18.306;2023-04-01T10:55:35;1.47;;;0.70;;
11548;SDS011;61444;59.472;18.306;2023-04-01T10:57:51;1.43;;;0.60;;
11548;SDS011;61444;59.472;18.306;2023-04-01T11:00:19;3.83;;;0.80;;
11548;SDS011;61444;59.472;18.306;2023-04-01T11:02:54;1.20;;;0.90;;
11548;SDS011;61444;59.472;18.306;2023-04-01T11:13:04;0.87;;;0.40;;
11548;SDS011;61444;59.472;18.306;2023-04-01T11:15:39;1.27;;;0.50;;
11548;SDS011;61444;59.472;18.306;2023-04-01T11:18:08;4.63;;;0.40;;
11548;SDS011;61444;59.472;18.306;2023-04-01T11:20:28;1.00;;;0.50;;
11548;SDS011;61444;59.472;18.306;2023-04-01T11:22:49;0.80;;;0.40;;
11548;SDS011;61444;59.472;18.306;2023-04-01T11:27:41;0.43;;;0.30;;
11548;SDS011;61444;59.472;18.306;2023-04-01T11:29:58;2.73;;;0.60;;
11548;SDS011;61444;59.472;18.306;2023-04-01T11:32:14;1.23;;;0.53;;
11548;SDS011;61444;59.472;18.306;2023-04-01T11:34:42;0.63;;;0.40;;
11548;SDS011;61444;59.472;18.306;2023-04-01T11:36:55;0.90;;;0.50;;
11548;SDS011;61444;59.472;18.306;2023-04-01T11:39:13;0.70;;;0.40;;
11548;SDS011;61444;59.472;18.306;2023-04-01T11:41:31;0.60;;;0.50;;
11548;SDS011;61444;59.472;18.306;2023-04-01T11:43:43;0.97;;;0.50;;
11548;SDS011;61444;59.472;18.306;2023-04-01T11:46:00;0.73;;;0.40;;
11548;SDS011;61444;59.472;18.306;2023-04-01T11:50:41;0.93;;;0.40;;
11548;SDS011;61444;59.472;18.306;2023-04-01T11:52:59;0.93;;;0.33;;
11548;SDS011;61444;59.472;18.306;2023-04-01T11:55:20;2.63;;;0.60;;
11548;SDS011;61444;59.472;18.306;2023-04-01T11:57:40;0.50;;;0.50;;
11548;SDS011;61444;59.472;18.306;2023-04-01T12:00:21;0.40;;;0.30;;
11548;SDS011;61444;59.472;18.306;2023-04-01T12:02:37;0.73;;;0.47;;
11548;SDS011;61444;59.472;18.306;2023-04-01T12:05:02;0.30;;;0.30;;
11548;SDS011;61444;59.472;18.306;2023-04-01T12:07:19;0.57;;;0.40;;
11548;SDS011;61444;59.472;18.306;2023-04-01T12:09:32;2.47;;;0.50;;
11548;SDS011;61444;59.472;18.306;2023-04-01T12:11:45;0.67;;;0.63;;
11548;SDS011;61444;59.472;18.306;2023-04-01T12:13:59;0.63;;;0.30;;
11548;SDS011;61444;59.472;18.306;2023-04-01T12:18:40;0.80;;;0.40;;
11548;SDS011;61444;59.472;18.306;2023-04-01T12:20:50;1.40;;;0.40;;
11548;SDS011;61444;59.472;18.306;2023-04-01T12:23:03;4.53;;;1.20;;
11548;SDS011;61444;59.472;18.306;2023-04-01T12:25:20;1.37;;;0.40;;
11548;SDS011;61444;59.472;18.306;2023-04-01T12:27:41;0.47;;;0.30;;
11548;SDS011;61444;59.472;18.306;2023-04-01T12:29:57;0.40;;;0.30;;
11548;SDS011;61444;59.472;18.306;2023-04-01T12:32:09;0.50;;;0.30;;
11548;SDS011;61444;59.472;18.306;2023-04-01T12:34:39;2.10;;;0.30;;
11548;SDS011;61444;59.472;18.306;2023-04-01T12:36:53;0.57;;;0.30;;
11548;SDS011;61444;59.472;18.306;2023-04-01T12:39:15;0.83;;;0.30;;
11548;SDS011;61444;59.472;18.306;2023-04-01T12:41:30;1.43;;;0.63;;
11548;SDS011;61444;59.472;18.306;2023-04-01T12:46:10;0.40;;;0.40;;
11548;SDS011;61444;59.472;18.306;2023-04-01T12:51:03;0.50;;;0.40;;
11548;SDS011;61444;59.472;18.306;2023-04-01T12:53:22;1.70;;;0.40;;
11548;SDS011;61444;59.472;18.306;2023-04-01T12:55:38;1.23;;;0.40;;
11548;SDS011;61444;59.472;18.306;2023-04-01T13:00:24;0.30;;;0.30;;
11548;SDS011;61444;59.472;18.306;2023-04-01T13:02:37;1.23;;;0.50;;
11548;SDS011;61444;59.472;18.306;2023-04-01T13:04:57;0.73;;;0.33;;
11548;SDS011;61444;59.472;18.306;2023-04-01T13:09:39;1.83;;;0.40;;
11548;SDS011;61444;59.472;18.306;2023-04-01T13:12:14;2.13;;;0.50;;
11548;SDS011;61444;59.472;18.306;2023-04-01T13:14:45;1.97;;;0.50;;
11548;SDS011;61444;59.472;18.306;2023-04-01T13:17:00;1.07;;;0.43;;
11548;SDS011;61444;59.472;18.306;2023-04-01T13:19:17;0.30;;;0.30;;
11548;SDS011;61444;59.472;18.306;2023-04-01T13:21:30;1.43;;;0.67;;
11548;SDS011;61444;59.472;18.306;2023-04-01T13:23:46;0.30;;;0.30;;
11548;SDS011;61444;59.472;18.306;2023-04-01T13:26:03;1.00;;;0.43;;
11548;SDS011;61444;59.472;18.306;2023-04-01T13:28:21;5.10;;;0.60;;
11548;SDS011;61444;59.472;18.306;2023-04-01T13:30:33;0.50;;;0.30;;
11548;SDS011;61444;59.472;18.306;2023-04-01T13:32:44;1.53;;;0.50;;
11548;SDS011;61444;59.472;18.306;2023-04-01T13:35:00;1.20;;;0.50;;
11548;SDS011;61444;59.472;18.306;2023-04-01T13:37:25;0.87;;;0.47;;
11548;SDS011;61444;59.472;18.306;2023-04-01T13:39:44;2.00;;;0.57;;
11548;SDS011;61444;59.472;18.306;2023-04-01T13:42:02;0.77;;;0.40;;
11548;SDS011;61444;59.472;18.306;2023-04-01T13:44:16;0.30;;;0.30;;
11548;SDS011;61444;59.472;18.306;2023-04-01T13:46:34;1.37;;;0.67;;
11548;SDS011;61444;59.472;18.306;2023-04-01T13:48:50;0.50;;;0.40;;
11548;SDS011;61444;59.472;18.306;2023-04-01T13:51:11;0.50;;;0.40;;
11548;SDS011;61444;59.472;18.306;2023-04-01T13:53:29;0.90;;;0.40;;
11548;SDS011;61444;59.472;18.306;2023-04-01T13:55:48;2.20;;;0.50;;
11548;SDS011;61444;59.472;18.306;2023-04-01T13:58:05;0.53;;;0.40;;
11548;SDS011;61444;59.472;18.306;2023-04-01T14:02:51;1.53;;;0.60;;
11548;SDS011;61444;59.472;18.306;2023-04-01T14:05:25;0.57;;;0.40;;
11548;SDS011;61444;59.472;18.306;2023-04-01T14:07:50;0.60;;;0.40;;
11548;SDS011;61444;59.472;18.306;2023-04-01T14:10:07;1.20;;;0.30;;
11548;SDS011;61444;59.472;18.306;2023-04-01T14:12:19;0.90;;;0.40;;
11548;SDS011;61444;59.472;18.306;2023-04-01T14:14:36;1.03;;;0.50;;
11548;SDS011;61444;59.472;18.306;2023-04-01T14:17:06;1.60;;;0.50;;
11548;SDS011;61444;59.472;18.306;2023-04-01T14:19:21;0.70;;;0.50;;
11548;SDS011;61444;59.472;18.306;2023-04-01T14:21:34;0.73;;;0.60;;
11548;SDS011;61444;59.472;18.306;2023-04-01T14:23:49;1.00;;;0.50;;
11548;SDS011;61444;59.472;18.306;2023-04-01T14:28:28;0.80;;;0.40;;
11548;SDS011;61444;59.472;18.306;2023-04-01T14:30:52;0.83;;;0.47;;
11548;SDS011;61444;59.472;18.306;2023-04-01T14:33:06;1.10;;;0.43;;
11548;SDS011;61444;59.472;18.306;2023-04-01T14:35:26;1.87;;;0.70;;
11548;SDS011;61444;59.472;18.306;2023-04-01T14:37:54;1.10;;;0.60;;
11548;SDS011;61444;59.472;18.306;2023-04-01T14:42:35;0.60;;;0.50;;
11548;SDS011;61444;59.472;18.306;2023-04-01T14:44:52;1.00;;;0.60;;
11548;SDS011;61444;59.472;18.306;2023-04-01T14:47:19;1.50;;;0.30;;
11548;SDS011;61444;59.472;18.306;2023-04-01T14:49:32;1.83;;;0.57;;
11548;SDS011;61444;59.472;18.306;2023-04-01T14:51:42;1.30;;;0.60;;
11548;SDS011;61444;59.472;18.306;2023-04-01T14:53:53;1.77;;;0.50;;
11548;SDS011;61444;59.472;18.306;2023-04-01T14:56:05;0.70;;;0.57;;
11548;SDS011;61444;59.472;18.306;2023-04-01T14:58:15;0.90;;;0.50;;
11548;SDS011;61444;59.472;18.306;2023-04-01T15:00:25;0.90;;;0.50;;
11548;SDS011;61444;59.472;18.306;2023-04-01T15:02:39;2.43;;;0.60;;
11548;SDS011;61444;59.472;18.306;2023-04-01T15:04:53;1.43;;;0.60;;
11548;SDS011;61444;59.472;18.306;2023-04-01T15:07:11;1.33;;;0.70;;
11548;SDS011;61444;59.472;18.306;2023-04-01T15:09:31;1.03;;;0.60;;
11548;SDS011;61444;59.472;18.306;2023-04-01T15:11:47;3.30;;;0.70;;
11548;SDS011;61444;59.472;18.306;2023-04-01T15:14:03;2.03;;;0.50;;
11548;SDS011;61444;59.472;18.306;2023-04-01T15:16:18;4.97;;;0.60;;
11548;SDS011;61444;59.472;18.306;2023-04-01T15:18:33;2.27;;;0.60;;
11548;SDS011;61444;59.472;18.306;2023-04-01T15:20:47;1.43;;;0.70;;
11548;SDS011;61444;59.472;18.306;2023-04-01T15:23:06;1.40;;;0.60;;
11548;SDS011;61444;59.472;18.306;2023-04-01T15:25:23;3.47;;;0.63;;
11548;SDS011;61444;59.472;18.306;2023-04-01T15:27:38;2.10;;;0.60;;
11548;SDS011;61444;59.472;18.306;2023-04-01T15:30:02;2.20;;;0.60;;
11548;SDS011;61444;59.472;18.306;2023-04-01T15:32:16;2.63;;;0.60;;
11548;SDS011;61444;59.472;18.306;2023-04-01T15:34:29;2.10;;;0.60;;
11548;SDS011;61444;59.472;18.306;2023-04-01T15:36:42;1.60;;;0.67;;
11548;SDS011;61444;59.472;18.306;2023-04-01T15:38:53;0.73;;;0.50;;
11548;SDS011;61444;59.472;18.306;2023-04-01T15:41:10;1.67;;;0.50;;
11548;SDS011;61444;59.472;18.306;2023-04-01T15:43:26;0.60;;;0.50;;
11548;SDS011;61444;59.472;18.306;2023-04-01T15:45:38;1.57;;;0.50;;
11548;SDS011;61444;59.472;18.306;2023-04-01T15:47:53;1.40;;;0.50;;